sensor_id;sensor_type;location;lat;lon;timestamp;P1;durP1;ratioP1;P2;durP2;ratioP2
16352;SDS011;8286;51.274;9.542;2023-07-08T00:01:56;2.67;;;2.20;;
16352;SDS011;8286;51.274;9.542;2023-07-08T00:04:22;3.95;;;2.15;;
16352;SDS011;8286;51.274;9.542;2023-07-08T00:06:49;2.47;;;2.25;;
16352;SDS011;8286;51.274;9.542;2023-07-08T00:09:17;3.88;;;2.22;;
16352;SDS011;8286;51.274;9.542;2023-07-08T00:11:44;2.53;;;2.33;;
16352;SDS011;8286;51.274;9.542;2023-07-08T00:14:10;2.72;;;2.35;;
16352;SDS011;8286;51.274;9.542;2023-07-08T00:16:37;2.78;;;2.50;;
16352;SDS011;8286;51.274;9.542;2023-07-08T00:19:07;5.72;;;2.38;;
16352;SDS011;8286;51.274;9.542;2023-07-08T00:21:35;2.55;;;2.35;;
16352;SDS011;8286;51.274;9.542;2023-07-08T00:24:01;3.17;;;2.30;;
16352;SDS011;8286;51.274;9.542;2023-07-08T00:26:30;3.05;;;2.33;;
16352;SDS011;8286;51.274;9.542;2023-07-08T00:28:57;2.60;;;2.40;;
16352;SDS011;8286;51.274;9.542;2023-07-08T00:31:24;4.43;;;2.42;;
16352;SDS011;8286;51.274;9.542;2023-07-08T00:33:50;3.53;;;2.65;;
16352;SDS011;8286;51.274;9.542;2023-07-08T00:36:17;2.72;;;2.45;;
16352;SDS011;8286;51.274;9.542;2023-07-08T00:38:44;3.35;;;2.70;;
16352;SDS011;8286;51.274;9.542;2023-07-08T00:41:11;3.97;;;2.70;;
16352;SDS011;8286;51.274;9.542;2023-07-08T00:43:41;2.95;;;2.65;;
16352;SDS011;8286;51.274;9.542;2023-07-08T00:46:13;5.10;;;2.70;;
16352;SDS011;8286;51.274;9.542;2023-07-08T00:48:46;5.15;;;2.67;;
16352;SDS011;8286;51.274;9.542;2023-07-08T00:51:14;4.47;;;2.70;;
16352;SDS011;8286;51.274;9.542;2023-07-08T00:53:42;4.07;;;2.90;;
16352;SDS011;8286;51.274;9.542;2023-07-08T00:56:09;5.22;;;3.00;;
16352;SDS011;8286;51.274;9.542;2023-07-08T00:58:39;4.00;;;2.70;;
16352;SDS011;8286;51.274;9.542;2023-07-08T01:01:10;3.05;;;2.50;;
16352;SDS011;8286;51.274;9.542;2023-07-08T01:03:39;6.43;;;3.25;;
16352;SDS011;8286;51.274;9.542;2023-07-08T01:06:09;4.60;;;3.00;;
16352;SDS011;8286;51.274;9.542;2023-07-08T01:08:36;4.90;;;2.72;;
16352;SDS011;8286;51.274;9.542;2023-07-08T01:11:03;4.75;;;2.80;;
16352;SDS011;8286;51.274;9.542;2023-07-08T01:13:31;2.60;;;2.40;;
16352;SDS011;8286;51.274;9.542;2023-07-08T01:16:02;4.18;;;2.53;;
16352;SDS011;8286;51.274;9.542;2023-07-08T01:18:29;4.63;;;2.88;;
16352;SDS011;8286;51.274;9.542;2023-07-08T01:20:55;4.45;;;2.95;;
16352;SDS011;8286;51.274;9.542;2023-07-08T01:23:27;4.75;;;2.60;;
16352;SDS011;8286;51.274;9.542;2023-07-08T01:25:54;3.47;;;2.55;;
16352;SDS011;8286;51.274;9.542;2023-07-08T01:28:20;3.78;;;2.95;;
16352;SDS011;8286;51.274;9.542;2023-07-08T01:30:47;4.68;;;2.50;;
16352;SDS011;8286;51.274;9.542;2023-07-08T01:33:16;16.55;;;3.05;;
16352;SDS011;8286;51.274;9.542;2023-07-08T01:35:44;3.42;;;2.90;;
16352;SDS011;8286;51.274;9.542;2023-07-08T01:38:12;3.40;;;2.45;;
16352;SDS011;8286;51.274;9.542;2023-07-08T01:40:47;3.67;;;2.90;;
16352;SDS011;8286;51.274;9.542;2023-07-08T01:43:15;4.28;;;2.40;;
16352;SDS011;8286;51.274;9.542;2023-07-08T01:45:41;2.72;;;2.50;;
16352;SDS011;8286;51.274;9.542;2023-07-08T01:48:11;4.93;;;2.70;;
16352;SDS011;8286;51.274;9.542;2023-07-08T01:50:40;4.93;;;2.70;;
16352;SDS011;8286;51.274;9.542;2023-07-08T01:53:10;3.47;;;2.42;;
16352;SDS011;8286;51.274;9.542;2023-07-08T01:55:38;4.45;;;2.92;;
16352;SDS011;8286;51.274;9.542;2023-07-08T01:58:06;6.10;;;2.75;;
16352;SDS011;8286;51.274;9.542;2023-07-08T02:00:33;3.42;;;2.60;;
16352;SDS011;8286;51.274;9.542;2023-07-08T02:02:59;5.25;;;2.65;;
16352;SDS011;8286;51.274;9.542;2023-07-08T02:05:26;3.40;;;2.65;;
16352;SDS011;8286;51.274;9.542;2023-07-08T02:07:52;2.67;;;2.42;;
16352;SDS011;8286;51.274;9.542;2023-07-08T02:10:20;6.68;;;2.75;;
16352;SDS011;8286;51.274;9.542;2023-07-08T02:12:47;6.68;;;2.65;;
16352;SDS011;8286;51.274;9.542;2023-07-08T02:15:15;2.83;;;2.40;;
16352;SDS011;8286;51.274;9.542;2023-07-08T02:17:41;4.03;;;2.70;;
16352;SDS011;8286;51.274;9.542;2023-07-08T02:20:08;2.55;;;2.35;;
16352;SDS011;8286;51.274;9.542;2023-07-08T02:22:35;4.25;;;2.83;;
16352;SDS011;8286;51.274;9.542;2023-07-08T02:25:02;3.90;;;3.15;;
16352;SDS011;8286;51.274;9.542;2023-07-08T02:27:30;4.78;;;2.72;;
16352;SDS011;8286;51.274;9.542;2023-07-08T02:29:57;4.95;;;2.72;;
16352;SDS011;8286;51.274;9.542;2023-07-08T02:32:24;2.88;;;2.60;;
16352;SDS011;8286;51.274;9.542;2023-07-08T02:34:51;4.53;;;2.70;;
16352;SDS011;8286;51.274;9.542;2023-07-08T02:37:18;3.13;;;2.85;;
16352;SDS011;8286;51.274;9.542;2023-07-08T02:39:44;4.50;;;2.95;;
16352;SDS011;8286;51.274;9.542;2023-07-08T02:42:11;2.85;;;2.53;;
16352;SDS011;8286;51.274;9.542;2023-07-08T02:44:37;4.63;;;2.88;;
16352;SDS011;8286;51.274;9.542;2023-07-08T02:47:04;3.22;;;2.63;;
16352;SDS011;8286;51.274;9.542;2023-07-08T02:49:32;5.50;;;3.17;;
16352;SDS011;8286;51.274;9.542;2023-07-08T02:51:59;3.92;;;2.65;;
16352;SDS011;8286;51.274;9.542;2023-07-08T02:54:25;4.35;;;3.10;;
16352;SDS011;8286;51.274;9.542;2023-07-08T02:56:52;5.40;;;2.95;;
16352;SDS011;8286;51.274;9.542;2023-07-08T02:59:18;4.97;;;2.77;;
16352;SDS011;8286;51.274;9.542;2023-07-08T03:01:45;5.20;;;2.80;;
16352;SDS011;8286;51.274;9.542;2023-07-08T03:04:12;4.53;;;2.83;;
16352;SDS011;8286;51.274;9.542;2023-07-08T03:06:41;5.85;;;3.25;;
16352;SDS011;8286;51.274;9.542;2023-07-08T03:09:08;4.85;;;2.67;;
16352;SDS011;8286;51.274;9.542;2023-07-08T03:11:35;3.05;;;2.75;;
16352;SDS011;8286;51.274;9.542;2023-07-08T03:14:02;3.90;;;3.00;;
16352;SDS011;8286;51.274;9.542;2023-07-08T03:16:29;3.78;;;2.90;;
16352;SDS011;8286;51.274;9.542;2023-07-08T03:18:55;7.00;;;3.15;;
16352;SDS011;8286;51.274;9.542;2023-07-08T03:21:22;5.72;;;3.17;;
16352;SDS011;8286;51.274;9.542;2023-07-08T03:23:50;6.93;;;3.42;;
16352;SDS011;8286;51.274;9.542;2023-07-08T03:26:18;3.88;;;3.08;;
16352;SDS011;8286;51.274;9.542;2023-07-08T03:28:46;4.05;;;2.40;;
16352;SDS011;8286;51.274;9.542;2023-07-08T03:31:13;4.50;;;3.03;;
16352;SDS011;8286;51.274;9.542;2023-07-08T03:33:40;4.78;;;3.00;;
16352;SDS011;8286;51.274;9.542;2023-07-08T03:36:09;4.30;;;2.80;;
16352;SDS011;8286;51.274;9.542;2023-07-08T03:38:37;3.80;;;2.97;;
16352;SDS011;8286;51.274;9.542;2023-07-08T03:41:05;4.10;;;3.00;;
16352;SDS011;8286;51.274;9.542;2023-07-08T03:43:32;4.57;;;2.95;;
16352;SDS011;8286;51.274;9.542;2023-07-08T03:45:59;4.90;;;2.53;;
16352;SDS011;8286;51.274;9.542;2023-07-08T03:48:25;3.50;;;3.20;;
16352;SDS011;8286;51.274;9.542;2023-07-08T03:50:52;6.40;;;2.90;;
16352;SDS011;8286;51.274;9.542;2023-07-08T03:53:18;3.60;;;3.30;;
16352;SDS011;8286;51.274;9.542;2023-07-08T03:55:45;3.47;;;2.83;;
16352;SDS011;8286;51.274;9.542;2023-07-08T03:58:13;5.38;;;2.72;;
16352;SDS011;8286;51.274;9.542;2023-07-08T04:00:39;5.25;;;3.05;;
16352;SDS011;8286;51.274;9.542;2023-07-08T04:03:07;3.42;;;2.70;;
16352;SDS011;8286;51.274;9.542;2023-07-08T04:05:36;4.57;;;2.75;;
16352;SDS011;8286;51.274;9.542;2023-07-08T04:08:02;3.97;;;3.20;;
16352;SDS011;8286;51.274;9.542;2023-07-08T04:10:29;3.53;;;3.22;;
16352;SDS011;8286;51.274;9.542;2023-07-08T04:12:56;3.97;;;2.92;;
16352;SDS011;8286;51.274;9.542;2023-07-08T04:15:24;2.92;;;2.70;;
16352;SDS011;8286;51.274;9.542;2023-07-08T04:17:53;3.63;;;2.72;;
16352;SDS011;8286;51.274;9.542;2023-07-08T04:20:21;4.10;;;3.00;;
16352;SDS011;8286;51.274;9.542;2023-07-08T04:22:47;7.57;;;3.35;;
16352;SDS011;8286;51.274;9.542;2023-07-08T04:25:14;3.10;;;2.80;;
16352;SDS011;8286;51.274;9.542;2023-07-08T04:27:41;4.30;;;2.67;;
16352;SDS011;8286;51.274;9.542;2023-07-08T04:30:09;7.63;;;2.90;;
16352;SDS011;8286;51.274;9.542;2023-07-08T04:32:44;3.83;;;2.67;;
16352;SDS011;8286;51.274;9.542;2023-07-08T04:35:11;5.05;;;3.00;;
16352;SDS011;8286;51.274;9.542;2023-07-08T04:37:38;2.92;;;2.67;;
16352;SDS011;8286;51.274;9.542;2023-07-08T04:40:05;4.88;;;2.80;;
16352;SDS011;8286;51.274;9.542;2023-07-08T04:42:33;3.30;;;2.33;;
16352;SDS011;8286;51.274;9.542;2023-07-08T04:45:00;5.18;;;2.83;;
16352;SDS011;8286;51.274;9.542;2023-07-08T04:47:29;2.67;;;2.33;;
16352;SDS011;8286;51.274;9.542;2023-07-08T04:49:59;5.13;;;3.00;;
16352;SDS011;8286;51.274;9.542;2023-07-08T04:52:26;2.67;;;2.40;;
16352;SDS011;8286;51.274;9.542;2023-07-08T04:54:52;4.97;;;2.80;;
16352;SDS011;8286;51.274;9.542;2023-07-08T04:57:19;4.82;;;2.50;;
16352;SDS011;8286;51.274;9.542;2023-07-08T04:59:46;4.97;;;2.67;;
16352;SDS011;8286;51.274;9.542;2023-07-08T05:02:12;3.13;;;2.83;;
16352;SDS011;8286;51.274;9.542;2023-07-08T05:04:39;3.22;;;2.92;;
16352;SDS011;8286;51.274;9.542;2023-07-08T05:07:07;6.30;;;2.25;;
16352;SDS011;8286;51.274;9.542;2023-07-08T05:09:34;3.30;;;2.97;;
16352;SDS011;8286;51.274;9.542;2023-07-08T05:12:00;3.90;;;2.55;;
16352;SDS011;8286;51.274;9.542;2023-07-08T05:14:27;3.33;;;2.60;;
16352;SDS011;8286;51.274;9.542;2023-07-08T05:16:56;4.47;;;2.53;;
16352;SDS011;8286;51.274;9.542;2023-07-08T05:19:23;4.60;;;2.50;;
16352;SDS011;8286;51.274;9.542;2023-07-08T05:21:50;2.85;;;2.60;;
16352;SDS011;8286;51.274;9.542;2023-07-08T05:24:19;4.28;;;2.35;;
16352;SDS011;8286;51.274;9.542;2023-07-08T05:26:46;3.08;;;2.20;;
16352;SDS011;8286;51.274;9.542;2023-07-08T05:29:13;4.45;;;3.03;;
16352;SDS011;8286;51.274;9.542;2023-07-08T05:31:39;3.45;;;2.72;;
16352;SDS011;8286;51.274;9.542;2023-07-08T05:34:06;3.78;;;2.67;;
16352;SDS011;8286;51.274;9.542;2023-07-08T05:36:32;2.80;;;2.40;;
16352;SDS011;8286;51.274;9.542;2023-07-08T05:38:59;3.42;;;2.83;;
16352;SDS011;8286;51.274;9.542;2023-07-08T05:41:27;6.10;;;3.38;;
16352;SDS011;8286;51.274;9.542;2023-07-08T05:43:53;2.95;;;2.72;;
16352;SDS011;8286;51.274;9.542;2023-07-08T05:46:20;3.00;;;2.65;;
16352;SDS011;8286;51.274;9.542;2023-07-08T05:48:46;2.95;;;2.65;;
16352;SDS011;8286;51.274;9.542;2023-07-08T05:51:13;4.68;;;3.08;;
16352;SDS011;8286;51.274;9.542;2023-07-08T05:53:40;5.18;;;2.83;;
16352;SDS011;8286;51.274;9.542;2023-07-08T05:56:07;3.40;;;2.75;;
16352;SDS011;8286;51.274;9.542;2023-07-08T05:58:35;7.10;;;2.97;;
16352;SDS011;8286;51.274;9.542;2023-07-08T06:01:01;8.75;;;3.30;;
16352;SDS011;8286;51.274;9.542;2023-07-08T06:03:28;4.18;;;3.20;;
16352;SDS011;8286;51.274;9.542;2023-07-08T06:05:54;4.20;;;3.13;;
16352;SDS011;8286;51.274;9.542;2023-07-08T06:08:21;3.72;;;2.80;;
16352;SDS011;8286;51.274;9.542;2023-07-08T06:10:49;6.93;;;2.67;;
16352;SDS011;8286;51.274;9.542;2023-07-08T06:13:15;4.07;;;2.83;;
16352;SDS011;8286;51.274;9.542;2023-07-08T06:15:43;6.65;;;3.20;;
16352;SDS011;8286;51.274;9.542;2023-07-08T06:18:10;3.13;;;2.80;;
16352;SDS011;8286;51.274;9.542;2023-07-08T06:20:37;4.25;;;2.97;;
16352;SDS011;8286;51.274;9.542;2023-07-08T06:23:03;4.00;;;2.60;;
16352;SDS011;8286;51.274;9.542;2023-07-08T06:25:30;3.13;;;2.83;;
16352;SDS011;8286;51.274;9.542;2023-07-08T06:27:57;3.85;;;3.10;;
16352;SDS011;8286;51.274;9.542;2023-07-08T06:30:23;5.25;;;3.03;;
16352;SDS011;8286;51.274;9.542;2023-07-08T06:32:51;4.88;;;2.70;;
16352;SDS011;8286;51.274;9.542;2023-07-08T06:35:18;4.13;;;2.38;;
16352;SDS011;8286;51.274;9.542;2023-07-08T06:37:44;3.45;;;2.90;;
16352;SDS011;8286;51.274;9.542;2023-07-08T06:40:11;3.10;;;2.80;;
16352;SDS011;8286;51.274;9.542;2023-07-08T06:42:38;4.20;;;2.90;;
16352;SDS011;8286;51.274;9.542;2023-07-08T06:45:05;6.75;;;3.15;;
16352;SDS011;8286;51.274;9.542;2023-07-08T06:47:32;3.95;;;2.85;;
16352;SDS011;8286;51.274;9.542;2023-07-08T06:50:00;3.88;;;2.90;;
16352;SDS011;8286;51.274;9.542;2023-07-08T06:52:27;3.20;;;2.90;;
16352;SDS011;8286;51.274;9.542;2023-07-08T06:54:59;3.63;;;2.78;;
16352;SDS011;8286;51.274;9.542;2023-07-08T06:57:25;3.25;;;3.05;;
16352;SDS011;8286;51.274;9.542;2023-07-08T06:59:52;5.80;;;2.97;;
16352;SDS011;8286;51.274;9.542;2023-07-08T07:02:18;2.78;;;2.58;;
16352;SDS011;8286;51.274;9.542;2023-07-08T07:04:45;4.57;;;2.72;;
16352;SDS011;8286;51.274;9.542;2023-07-08T07:07:13;4.30;;;2.78;;
16352;SDS011;8286;51.274;9.542;2023-07-08T07:09:40;3.25;;;2.70;;
16352;SDS011;8286;51.274;9.542;2023-07-08T07:12:06;3.20;;;2.90;;
16352;SDS011;8286;51.274;9.542;2023-07-08T07:14:33;6.13;;;3.00;;
16352;SDS011;8286;51.274;9.542;2023-07-08T07:17:00;3.55;;;2.75;;
16352;SDS011;8286;51.274;9.542;2023-07-08T07:19:27;2.75;;;2.55;;
16352;SDS011;8286;51.274;9.542;2023-07-08T07:21:53;3.92;;;3.00;;
16352;SDS011;8286;51.274;9.542;2023-07-08T07:24:21;4.75;;;3.40;;
16352;SDS011;8286;51.274;9.542;2023-07-08T07:26:47;3.72;;;3.05;;
16352;SDS011;8286;51.274;9.542;2023-07-08T07:29:15;3.42;;;2.63;;
16352;SDS011;8286;51.274;9.542;2023-07-08T07:31:42;4.43;;;2.80;;
16352;SDS011;8286;51.274;9.542;2023-07-08T07:34:09;3.65;;;2.60;;
16352;SDS011;8286;51.274;9.542;2023-07-08T07:36:35;7.07;;;2.58;;
16352;SDS011;8286;51.274;9.542;2023-07-08T07:39:02;2.75;;;2.42;;
16352;SDS011;8286;51.274;9.542;2023-07-08T07:41:30;2.80;;;2.60;;
16352;SDS011;8286;51.274;9.542;2023-07-08T07:43:56;3.10;;;2.90;;
16352;SDS011;8286;51.274;9.542;2023-07-08T07:46:23;3.30;;;2.97;;
16352;SDS011;8286;51.274;9.542;2023-07-08T07:48:50;5.13;;;2.67;;
16352;SDS011;8286;51.274;9.542;2023-07-08T07:51:16;3.22;;;2.70;;
16352;SDS011;8286;51.274;9.542;2023-07-08T07:53:43;6.40;;;2.85;;
16352;SDS011;8286;51.274;9.542;2023-07-08T07:56:09;4.07;;;3.30;;
16352;SDS011;8286;51.274;9.542;2023-07-08T07:58:37;3.33;;;3.13;;
16352;SDS011;8286;51.274;9.542;2023-07-08T08:01:04;2.95;;;2.72;;
16352;SDS011;8286;51.274;9.542;2023-07-08T08:03:31;5.25;;;2.97;;
16352;SDS011;8286;51.274;9.542;2023-07-08T08:05:58;4.20;;;3.17;;
16352;SDS011;8286;51.274;9.542;2023-07-08T08:08:24;3.15;;;2.70;;
16352;SDS011;8286;51.274;9.542;2023-07-08T08:10:51;3.20;;;2.90;;
16352;SDS011;8286;51.274;9.542;2023-07-08T08:13:20;4.30;;;2.83;;
16352;SDS011;8286;51.274;9.542;2023-07-08T08:15:48;3.20;;;2.90;;
16352;SDS011;8286;51.274;9.542;2023-07-08T08:18:14;3.20;;;2.92;;
16352;SDS011;8286;51.274;9.542;2023-07-08T08:20:41;5.90;;;2.70;;
16352;SDS011;8286;51.274;9.542;2023-07-08T08:23:07;3.10;;;2.90;;
16352;SDS011;8286;51.274;9.542;2023-07-08T08:25:34;3.65;;;2.50;;
16352;SDS011;8286;51.274;9.542;2023-07-08T08:28:01;4.65;;;3.15;;
16352;SDS011;8286;51.274;9.542;2023-07-08T08:30:27;3.33;;;3.03;;
16352;SDS011;8286;51.274;9.542;2023-07-08T08:32:55;2.85;;;2.65;;
16352;SDS011;8286;51.274;9.542;2023-07-08T08:35:22;3.50;;;3.20;;
16352;SDS011;8286;51.274;9.542;2023-07-08T08:37:48;4.35;;;3.63;;
16352;SDS011;8286;51.274;9.542;2023-07-08T08:40:15;3.63;;;3.10;;
16352;SDS011;8286;51.274;9.542;2023-07-08T08:42:44;4.50;;;3.22;;
16352;SDS011;8286;51.274;9.542;2023-07-08T08:45:15;2.88;;;2.67;;
16352;SDS011;8286;51.274;9.542;2023-07-08T08:47:44;3.95;;;3.65;;
16352;SDS011;8286;51.274;9.542;2023-07-08T08:50:19;3.17;;;2.90;;
16352;SDS011;8286;51.274;9.542;2023-07-08T08:52:50;3.70;;;3.40;;
16352;SDS011;8286;51.274;9.542;2023-07-08T08:55:19;4.90;;;3.35;;
16352;SDS011;8286;51.274;9.542;2023-07-08T08:57:47;4.40;;;3.53;;
16352;SDS011;8286;51.274;9.542;2023-07-08T09:00:18;3.88;;;3.58;;
16352;SDS011;8286;51.274;9.542;2023-07-08T09:02:51;5.70;;;2.97;;
16352;SDS011;8286;51.274;9.542;2023-07-08T09:05:21;3.67;;;3.38;;
16352;SDS011;8286;51.274;9.542;2023-07-08T09:07:54;4.10;;;2.90;;
16352;SDS011;8286;51.274;9.542;2023-07-08T09:10:29;5.25;;;3.45;;
16352;SDS011;8286;51.274;9.542;2023-07-08T09:13:02;5.15;;;3.20;;
16352;SDS011;8286;51.274;9.542;2023-07-08T09:15:29;5.72;;;3.25;;
16352;SDS011;8286;51.274;9.542;2023-07-08T09:17:57;3.42;;;3.17;;
16352;SDS011;8286;51.274;9.542;2023-07-08T09:20:32;3.55;;;3.28;;
16352;SDS011;8286;51.274;9.542;2023-07-08T09:23:07;4.03;;;3.50;;
16352;SDS011;8286;51.274;9.542;2023-07-08T09:25:39;6.03;;;3.08;;
16352;SDS011;8286;51.274;9.542;2023-07-08T09:28:07;5.75;;;3.47;;
16352;SDS011;8286;51.274;9.542;2023-07-08T09:30:35;3.45;;;3.15;;
16352;SDS011;8286;51.274;9.542;2023-07-08T09:33:02;3.92;;;3.28;;
16352;SDS011;8286;51.274;9.542;2023-07-08T09:35:37;3.30;;;3.00;;
16352;SDS011;8286;51.274;9.542;2023-07-08T09:38:07;4.10;;;3.58;;
16352;SDS011;8286;51.274;9.542;2023-07-08T09:40:34;3.30;;;3.05;;
16352;SDS011;8286;51.274;9.542;2023-07-08T09:43:02;3.95;;;3.65;;
16352;SDS011;8286;51.274;9.542;2023-07-08T09:45:29;4.65;;;3.63;;
16352;SDS011;8286;51.274;9.542;2023-07-08T09:48:13;4.70;;;3.17;;
16352;SDS011;8286;51.274;9.542;2023-07-08T09:50:42;3.35;;;3.10;;
16352;SDS011;8286;51.274;9.542;2023-07-08T09:53:11;3.90;;;3.60;;
16352;SDS011;8286;51.274;9.542;2023-07-08T09:55:39;6.50;;;3.42;;
16352;SDS011;8286;51.274;9.542;2023-07-08T09:58:06;3.95;;;3.33;;
16352;SDS011;8286;51.274;9.542;2023-07-08T10:00:38;3.65;;;3.35;;
16352;SDS011;8286;51.274;9.542;2023-07-08T10:03:08;3.83;;;3.47;;
16352;SDS011;8286;51.274;9.542;2023-07-08T10:05:39;4.75;;;3.33;;
16352;SDS011;8286;51.274;9.542;2023-07-08T10:08:14;3.85;;;3.55;;
16352;SDS011;8286;51.274;9.542;2023-07-08T10:10:42;3.20;;;3.00;;
16352;SDS011;8286;51.274;9.542;2023-07-08T10:13:14;4.10;;;3.20;;
16352;SDS011;8286;51.274;9.542;2023-07-08T10:15:44;3.40;;;3.10;;
16352;SDS011;8286;51.274;9.542;2023-07-08T10:18:13;3.80;;;3.40;;
16352;SDS011;8286;51.274;9.542;2023-07-08T10:20:46;5.43;;;3.70;;
16352;SDS011;8286;51.274;9.542;2023-07-08T10:23:23;4.97;;;3.53;;
16352;SDS011;8286;51.274;9.542;2023-07-08T10:26:11;3.30;;;3.00;;
16352;SDS011;8286;51.274;9.542;2023-07-08T10:28:43;4.18;;;3.70;;
16352;SDS011;8286;51.274;9.542;2023-07-08T10:31:16;3.78;;;3.47;;
16352;SDS011;8286;51.274;9.542;2023-07-08T10:33:55;4.40;;;4.00;;
16352;SDS011;8286;51.274;9.542;2023-07-08T10:36:30;5.88;;;3.58;;
16352;SDS011;8286;51.274;9.542;2023-07-08T10:39:12;3.78;;;3.47;;
16352;SDS011;8286;51.274;9.542;2023-07-08T10:41:47;4.18;;;3.78;;
16352;SDS011;8286;51.274;9.542;2023-07-08T10:44:19;4.03;;;3.72;;
16352;SDS011;8286;51.274;9.542;2023-07-08T10:46:53;4.45;;;3.67;;
16352;SDS011;8286;51.274;9.542;2023-07-08T10:49:31;4.13;;;3.80;;
16352;SDS011;8286;51.274;9.542;2023-07-08T10:52:28;4.05;;;3.70;;
16352;SDS011;8286;51.274;9.542;2023-07-08T10:55:07;4.15;;;3.85;;
16352;SDS011;8286;51.274;9.542;2023-07-08T10:57:43;4.20;;;3.80;;
16352;SDS011;8286;51.274;9.542;2023-07-08T11:00:20;3.97;;;3.40;;
16352;SDS011;8286;51.274;9.542;2023-07-08T11:05:56;4.03;;;3.72;;
16352;SDS011;8286;51.274;9.542;2023-07-08T11:08:26;4.10;;;3.80;;
16352;SDS011;8286;51.274;9.542;2023-07-08T11:10:56;4.78;;;3.85;;
16352;SDS011;8286;51.274;9.542;2023-07-08T11:13:24;4.13;;;3.70;;
16352;SDS011;8286;51.274;9.542;2023-07-08T11:15:54;4.72;;;3.80;;
16352;SDS011;8286;51.274;9.542;2023-07-08T11:18:24;4.78;;;4.32;;
16352;SDS011;8286;51.274;9.542;2023-07-08T11:20:55;4.20;;;3.80;;
16352;SDS011;8286;51.274;9.542;2023-07-08T11:23:26;4.22;;;3.80;;
16352;SDS011;8286;51.274;9.542;2023-07-08T11:26:02;4.35;;;3.78;;
16352;SDS011;8286;51.274;9.542;2023-07-08T11:28:31;4.50;;;4.10;;
16352;SDS011;8286;51.274;9.542;2023-07-08T11:30:58;4.72;;;4.32;;
16352;SDS011;8286;51.274;9.542;2023-07-08T11:33:27;4.22;;;3.83;;
16352;SDS011;8286;51.274;9.542;2023-07-08T11:35:56;4.10;;;3.75;;
16352;SDS011;8286;51.274;9.542;2023-07-08T11:38:24;3.80;;;3.50;;
16352;SDS011;8286;51.274;9.542;2023-07-08T11:40:52;3.88;;;3.58;;
16352;SDS011;8286;51.274;9.542;2023-07-08T11:43:22;4.20;;;3.80;;
16352;SDS011;8286;51.274;9.542;2023-07-08T11:45:50;4.57;;;4.15;;
16352;SDS011;8286;51.274;9.542;2023-07-08T11:48:21;5.30;;;4.00;;
16352;SDS011;8286;51.274;9.542;2023-07-08T11:50:50;4.00;;;3.70;;
16352;SDS011;8286;51.274;9.542;2023-07-08T11:53:31;4.25;;;3.90;;
16352;SDS011;8286;51.274;9.542;2023-07-08T11:56:02;4.30;;;3.90;;
16352;SDS011;8286;51.274;9.542;2023-07-08T11:58:32;4.72;;;4.32;;
16352;SDS011;8286;51.274;9.542;2023-07-08T12:01:19;3.95;;;3.65;;
16352;SDS011;8286;51.274;9.542;2023-07-08T12:03:50;5.32;;;4.20;;
16352;SDS011;8286;51.274;9.542;2023-07-08T12:09:13;4.95;;;4.32;;
16352;SDS011;8286;51.274;9.542;2023-07-08T12:11:43;4.05;;;3.75;;
16352;SDS011;8286;51.274;9.542;2023-07-08T12:14:11;5.18;;;4.25;;
16352;SDS011;8286;51.274;9.542;2023-07-08T12:16:39;6.72;;;4.22;;
16352;SDS011;8286;51.274;9.542;2023-07-08T12:19:09;4.40;;;4.10;;
16352;SDS011;8286;51.274;9.542;2023-07-08T12:21:37;4.28;;;3.97;;
16352;SDS011;8286;51.274;9.542;2023-07-08T12:24:04;5.60;;;4.18;;
16352;SDS011;8286;51.274;9.542;2023-07-08T12:26:32;4.15;;;3.75;;
16352;SDS011;8286;51.274;9.542;2023-07-08T12:28:59;4.78;;;4.18;;
16352;SDS011;8286;51.274;9.542;2023-07-08T12:31:28;4.90;;;3.88;;
16352;SDS011;8286;51.274;9.542;2023-07-08T12:33:56;4.60;;;4.15;;
16352;SDS011;8286;51.274;9.542;2023-07-08T12:36:24;4.38;;;3.97;;
16352;SDS011;8286;51.274;9.542;2023-07-08T12:38:54;5.57;;;4.00;;
16352;SDS011;8286;51.274;9.542;2023-07-08T12:41:22;4.13;;;3.70;;
16352;SDS011;8286;51.274;9.542;2023-07-08T12:43:50;4.97;;;4.38;;
16352;SDS011;8286;51.274;9.542;2023-07-08T12:46:19;4.82;;;4.32;;
16352;SDS011;8286;51.274;9.542;2023-07-08T12:48:48;4.22;;;3.80;;
16352;SDS011;8286;51.274;9.542;2023-07-08T12:51:16;4.97;;;4.20;;
16352;SDS011;8286;51.274;9.542;2023-07-08T12:53:45;4.50;;;4.20;;
16352;SDS011;8286;51.274;9.542;2023-07-08T12:56:12;4.38;;;3.97;;
16352;SDS011;8286;51.274;9.542;2023-07-08T12:58:40;4.05;;;3.65;;
16352;SDS011;8286;51.274;9.542;2023-07-08T13:01:08;4.60;;;4.20;;
16352;SDS011;8286;51.274;9.542;2023-07-08T13:03:40;4.55;;;4.05;;
16352;SDS011;8286;51.274;9.542;2023-07-08T13:06:10;4.82;;;4.43;;
16352;SDS011;8286;51.274;9.542;2023-07-08T13:08:38;4.82;;;4.25;;
16352;SDS011;8286;51.274;9.542;2023-07-08T13:11:05;4.72;;;4.13;;
16352;SDS011;8286;51.274;9.542;2023-07-08T13:13:33;4.60;;;4.20;;
16352;SDS011;8286;51.274;9.542;2023-07-08T13:16:01;5.07;;;4.57;;
16352;SDS011;8286;51.274;9.542;2023-07-08T13:18:29;5.15;;;4.22;;
16352;SDS011;8286;51.274;9.542;2023-07-08T13:20:57;3.88;;;3.58;;
16352;SDS011;8286;51.274;9.542;2023-07-08T13:23:26;6.85;;;3.90;;
16352;SDS011;8286;51.274;9.542;2023-07-08T13:25:53;4.32;;;3.92;;
16352;SDS011;8286;51.274;9.542;2023-07-08T13:28:22;4.32;;;4.00;;
16352;SDS011;8286;51.274;9.542;2023-07-08T13:30:50;4.25;;;3.85;;
16352;SDS011;8286;51.274;9.542;2023-07-08T13:33:18;5.25;;;4.10;;
16352;SDS011;8286;51.274;9.542;2023-07-08T13:35:45;4.18;;;3.55;;
16352;SDS011;8286;51.274;9.542;2023-07-08T13:38:14;5.95;;;4.35;;
16352;SDS011;8286;51.274;9.542;2023-07-08T13:40:43;5.57;;;4.15;;
16352;SDS011;8286;51.274;9.542;2023-07-08T13:43:11;4.80;;;4.22;;
16352;SDS011;8286;51.274;9.542;2023-07-08T13:45:38;4.00;;;3.70;;
16352;SDS011;8286;51.274;9.542;2023-07-08T13:48:13;4.82;;;4.13;;
16352;SDS011;8286;51.274;9.542;2023-07-08T13:50:44;4.43;;;4.03;;
16352;SDS011;8286;51.274;9.542;2023-07-08T13:53:19;4.20;;;3.80;;
16352;SDS011;8286;51.274;9.542;2023-07-08T13:55:55;4.40;;;4.00;;
16352;SDS011;8286;51.274;9.542;2023-07-08T13:58:25;6.00;;;4.38;;
16352;SDS011;8286;51.274;9.542;2023-07-08T14:00:53;7.15;;;3.50;;
16352;SDS011;8286;51.274;9.542;2023-07-08T14:03:20;4.35;;;3.78;;
16352;SDS011;8286;51.274;9.542;2023-07-08T14:05:47;4.60;;;4.20;;
16352;SDS011;8286;51.274;9.542;2023-07-08T14:08:14;4.97;;;3.78;;
16352;SDS011;8286;51.274;9.542;2023-07-08T14:10:42;7.50;;;4.55;;
16352;SDS011;8286;51.274;9.542;2023-07-08T14:13:11;6.55;;;4.55;;
16352;SDS011;8286;51.274;9.542;2023-07-08T14:15:38;4.63;;;4.05;;
16352;SDS011;8286;51.274;9.542;2023-07-08T14:18:05;4.97;;;3.70;;
16352;SDS011;8286;51.274;9.542;2023-07-08T14:20:32;5.93;;;3.67;;
16352;SDS011;8286;51.274;9.542;2023-07-08T14:22:58;11.80;;;4.15;;
16352;SDS011;8286;51.274;9.542;2023-07-08T14:25:25;4.82;;;3.80;;
16352;SDS011;8286;51.274;9.542;2023-07-08T14:27:51;4.57;;;4.15;;
16352;SDS011;8286;51.274;9.542;2023-07-08T14:30:19;4.30;;;3.90;;
16352;SDS011;8286;51.274;9.542;2023-07-08T14:32:47;4.20;;;3.80;;
16352;SDS011;8286;51.274;9.542;2023-07-08T14:35:15;4.97;;;3.95;;
16352;SDS011;8286;51.274;9.542;2023-07-08T14:37:43;5.03;;;3.70;;
16352;SDS011;8286;51.274;9.542;2023-07-08T14:40:20;6.57;;;4.00;;
16352;SDS011;8286;51.274;9.542;2023-07-08T14:42:51;5.75;;;3.88;;
16352;SDS011;8286;51.274;9.542;2023-07-08T14:45:25;4.70;;;4.22;;
16352;SDS011;8286;51.274;9.542;2023-07-08T14:47:52;5.10;;;4.20;;
16352;SDS011;8286;51.274;9.542;2023-07-08T14:50:18;6.88;;;4.13;;
16352;SDS011;8286;51.274;9.542;2023-07-08T14:52:45;5.40;;;4.75;;
16352;SDS011;8286;51.274;9.542;2023-07-08T14:55:12;9.48;;;4.20;;
16352;SDS011;8286;51.274;9.542;2023-07-08T14:57:40;4.38;;;3.97;;
16352;SDS011;8286;51.274;9.542;2023-07-08T15:00:10;4.18;;;3.75;;
16352;SDS011;8286;51.274;9.542;2023-07-08T15:02:40;4.65;;;3.78;;
16352;SDS011;8286;51.274;9.542;2023-07-08T15:05:10;6.30;;;4.65;;
16352;SDS011;8286;51.274;9.542;2023-07-08T15:07:39;5.35;;;3.90;;
16352;SDS011;8286;51.274;9.542;2023-07-08T15:10:06;4.55;;;4.13;;
16352;SDS011;8286;51.274;9.542;2023-07-08T15:12:34;5.00;;;4.55;;
16352;SDS011;8286;51.274;9.542;2023-07-08T15:15:01;4.78;;;3.85;;